Map

Track Data

SID SEASON NUMBER BASIN SUBBASIN NAME ISO_TIME NATURE LAT LON WMO_WIND WMO_PRES WMO_AGENCY TRACK_TYPE DIST2LAND LANDFALL IFLAG USA_AGENCY USA_ATCF_ID USA_LAT USA_LON USA_RECORD USA_STATUS USA_WIND USA_PRES USA_SSHS USA_R34_NE USA_R34_SE USA_R34_SW USA_R34_NW USA_R50_NE USA_R50_SE USA_R50_SW USA_R50_NW USA_R64_NE USA_R64_SE USA_R64_SW USA_R64_NW USA_POCI USA_ROCI USA_RMW USA_EYE TOKYO_LAT TOKYO_LON TOKYO_GRADE TOKYO_WIND TOKYO_PRES TOKYO_R50_DIR TOKYO_R50_LONG TOKYO_R50_SHORT TOKYO_R30_DIR TOKYO_R30_LONG TOKYO_R30_SHORT TOKYO_LAND CMA_LAT CMA_LON CMA_CAT CMA_WIND CMA_PRES HKO_LAT HKO_LON HKO_CAT HKO_WIND HKO_PRES NEWDELHI_LAT NEWDELHI_LON NEWDELHI_GRADE NEWDELHI_WIND NEWDELHI_PRES NEWDELHI_CI NEWDELHI_DP NEWDELHI_POCI REUNION_LAT REUNION_LON REUNION_TYPE REUNION_WIND REUNION_PRES REUNION_TNUM REUNION_CI REUNION_RMW REUNION_R34_NE REUNION_R34_SE REUNION_R34_SW REUNION_R34_NW REUNION_R50_NE REUNION_R50_SE REUNION_R50_SW REUNION_R50_NW REUNION_R64_NE REUNION_R64_SE REUNION_R64_SW REUNION_R64_NW BOM_LAT BOM_LON BOM_TYPE BOM_WIND BOM_PRES BOM_TNUM BOM_CI BOM_RMW BOM_R34_NE BOM_R34_SE BOM_R34_SW BOM_R34_NW BOM_R50_NE BOM_R50_SE BOM_R50_SW BOM_R50_NW BOM_R64_NE BOM_R64_SE BOM_R64_SW BOM_R64_NW BOM_ROCI BOM_POCI BOM_EYE BOM_POS_METHOD BOM_PRES_METHOD NADI_LAT NADI_LON NADI_CAT NADI_WIND NADI_PRES WELLINGTON_LAT WELLINGTON_LON WELLINGTON_WIND WELLINGTON_PRES DS824_LAT DS824_LON DS824_STAGE DS824_WIND DS824_PRES TD9636_LAT TD9636_LON TD9636_STAGE TD9636_WIND TD9636_PRES TD9635_LAT TD9635_LON TD9635_WIND TD9635_PRES TD9635_ROCI NEUMANN_LAT NEUMANN_LON NEUMANN_CLASS NEUMANN_WIND NEUMANN_PRES MLC_LAT MLC_LON MLC_CLASS MLC_WIND MLC_PRES USA_GUST BOM_GUST BOM_GUST_PER REUNION_GUST REUNION_GUST_PER USA_SEAHGT USA_SEARAD_NE USA_SEARAD_SE USA_SEARAD_SW USA_SEARAD_NW STORM_SPEED STORM_DIR
1884171N20088 1884 13 NI BB NOT_NAMED 1884-06-19 00:00:00 TS 20.3000 88.3000 main 142 122 _________O____ -1 20.3000 88.3000 TC 30 4 280
1884171N20088 1884 13 NI BB NOT_NAMED 1884-06-19 03:00:00 TS 20.3334 88.1000 main 122 89 _________PO___ -1 20.3501 88.0000 TC 30 20.3000 88.3000 1 5 280
1884171N20088 1884 13 NI BB NOT_NAMED 1884-06-19 06:00:00 TS 20.3815 87.8176 main 89 61 _________OP___ -1 20.4000 87.7000 TC 30 20.3536 87.9939 1 5 280
1884171N20088 1884 13 NI BB NOT_NAMED 1884-06-19 09:00:00 TS 20.4309 87.5243 main 61 38 _________PP___ -1 20.4499 87.4000 TC 30 20.4056 87.6901 1 5 280
1884171N20088 1884 13 NI BB NOT_NAMED 1884-06-19 12:00:00 TS 20.4774 87.2457 main 30 15 _________OP___ -1 20.5000 87.1000 TC 30 20.4548 87.3913 1 5 280
1884171N20088 1884 13 NI BB NOT_NAMED 1884-06-19 15:00:00 TS 20.5287 86.9500 main 15 0 _________PO___ -1 20.5574 86.8000 TC 30 20.5000 87.1000 1 6 280
1884171N20088 1884 13 NI BB NOT_NAMED 1884-06-19 18:00:00 TS 20.5700 86.6581 main 0 0 _________OP___ -1 20.6000 86.5000 TC 30 20.5399 86.8163 1 5 276
1884171N20088 1884 13 NI BB NOT_NAMED 1884-06-19 21:00:00 TS 20.5897 86.3725 main 0 0 _________PP___ -1 20.6074 86.2150 TC 30 20.5719 86.5300 1 6 273
1884171N20088 1884 13 NI BB NOT_NAMED 1884-06-20 00:00:00 TS 20.5965 86.0644 main 0 0 _________OP___ -1 20.6000 85.9000 TC 30 20.5930 86.2288 1 6 271
1884171N20088 1884 13 NI BB NOT_NAMED 1884-06-20 03:00:00 TS 20.6038 85.7075 main 0 0 _________PO___ -1 20.6075 85.5151 TC 30 20.6000 85.9000 1 7 269
1884171N20088 1884 13 NI BB NOT_NAMED 1884-06-20 06:00:00 TS 20.5886 85.3162 main 0 0 _________OP___ -1 20.6000 85.1000 TC 30 20.5771 85.5324 1 7 266
1884171N20088 1884 13 NI BB NOT_NAMED 1884-06-20 09:00:00 TS 20.5461 84.9222 main 0 0 _________PP___ -1 20.5499 84.7074 TC 30 20.5424 85.1369 1 8 264
1884171N20088 1884 13 NI BB NOT_NAMED 1884-06-20 12:00:00 TS 20.5057 84.5115 main 0 0 _________OP___ -1 20.5000 84.3000 TC 30 20.5114 84.7230 1 8 266
1884171N20088 1884 13 NI BB NOT_NAMED 1884-06-20 15:00:00 TS 20.4887 84.0750 main 0 0 _________PO___ -1 20.4775 83.8499 TC 30 20.5000 84.3000 1 8 269
1884171N20088 1884 13 NI BB NOT_NAMED 1884-06-20 18:00:00 TS 20.4940 83.6247 main 0 0 _________OP___ -1 20.5000 83.4000 TC 30 20.4881 83.8494 1 8 273
1884171N20088 1884 13 NI BB NOT_NAMED 1884-06-20 21:00:00 TS 20.5327 83.1873 main 0 0 _________PP___ -1 20.5625 82.9774 TC 30 20.5029 83.3971 1 8 280
1884171N20088 1884 13 NI BB NOT_NAMED 1884-06-21 00:00:00 TS 20.6331 82.7856 main 0 0 _________OP___ -1 20.7000 82.6000 TC 30 20.5663 82.9712 1 8 291
1884171N20088 1884 13 NI BB NOT_NAMED 1884-06-21 03:00:00 TS 20.8062 82.4313 main 0 0 _________PO___ -1 20.9125 82.2626 TC 30 20.7000 82.6000 1 7 305
1884171N20088 1884 13 NI BB NOT_NAMED 1884-06-21 06:00:00 TS 21.0557 82.1468 main 0 0 _________OP___ -1 21.2000 82.0000 TC 30 20.9115 82.2935 1 7 320
1884171N20088 1884 13 NI BB NOT_NAMED 1884-06-21 09:00:00 TS 21.3610 81.9327 main 0 0 _________PP___ -1 21.5274 81.8199 TC 30 21.1945 82.0455 1 7 332
1884171N20088 1884 13 NI BB NOT_NAMED 1884-06-21 12:00:00 TS 21.7152 81.7748 main 0 0 _________OP___ -1 21.9000 81.7000 TC 30 21.5304 81.8497 1 8 340
1884171N20088 1884 13 NI BB NOT_NAMED 1884-06-21 15:00:00 TS 22.0962 81.6425 main 0 0 _________PO___ -1 22.2925 81.5850 TC 30 21.9000 81.7000 1 8 344
1884171N20088 1884 13 NI BB NOT_NAMED 1884-06-21 18:00:00 TS 22.4896 81.5367 main 0 0 _________OP___ -1 22.7000 81.5000 TC 30 22.2792 81.5734 1 8 348
1884171N20088 1884 13 NI BB NOT_NAMED 1884-06-21 21:00:00 TS 22.8961 81.4660 main 0 0 _________PP___ -1 23.1075 81.4424 TC 30 22.6848 81.4896 1 8 352
1884171N20088 1884 13 NI BB NOT_NAMED 1884-06-22 00:00:00 TS 23.2990 81.4180 main 0 0 _________OP___ -1 23.5000 81.4000 TC 30 23.0980 81.4360 1 8 354
1884171N20088 1884 13 NI BB NOT_NAMED 1884-06-22 03:00:00 TS 23.6787 81.3713 main 0 0 _________PO___ -1 23.8575 81.3425 TC 30 23.5000 81.4000 1 7 353
1884171N20088 1884 13 NI BB NOT_NAMED 1884-06-22 06:00:00 TS 24.0322 81.3242 main 0 0 _________OP___ -1 24.2000 81.3000 TC 30 23.8643 81.3484 1 7 355
1884171N20088 1884 13 NI BB NOT_NAMED 1884-06-22 09:00:00 TS 24.3825 81.2988 main 0 0 _________PP___ -1 24.5500 81.2850 TC 30 24.2150 81.3126 1 7 0
1884171N20088 1884 13 NI BB NOT_NAMED 1884-06-22 12:00:00 TS 24.7290 81.2977 main 0 0 _________OP___ -1 24.9000 81.3000 TC 30 24.5581 81.2954 1 7 0
1884171N20088 1884 13 NI BB NOT_NAMED 1884-06-22 15:00:00 TS 25.0750 81.3212 main 0 0 _________PO___ -1 25.2500 81.3425 TC 30 24.9000 81.3000 1 7 4
1884171N20088 1884 13 NI BB NOT_NAMED 1884-06-22 18:00:00 TS 25.3975 81.3588 main 0 0 _________OP___ -1 25.6000 81.4000 TC 30 25.2457 81.3279 1 7 7
1884171N20088 1884 13 NI BB NOT_NAMED 1884-06-22 21:00:00 TS 25.7370 81.4057 main 0 0 _________PP___ -1 25.9500 81.4525 TC 30 25.5951 81.3746 1 7 7
1884171N20088 1884 13 NI BB NOT_NAMED 1884-06-23 00:00:00 TS 26.0646 81.4560 main 0 0 _________OP___ -1 26.3000 81.5000 TC 30 25.9469 81.4340 1 6 9
1884171N20088 1884 13 NI BB NOT_NAMED 1884-06-23 03:00:00 NR 26.3000 81.5000 main 0 __________O___ -1 TC 26.3000 81.5000 1 5 7

About IBTrACS Database

This database is a web-friendly format of International Best Track Archive for Climate Stewardship (IBTrACS), a global best track data archive curated by NOAA dating back to 1842.

Updated: 2021-12-01